sensor_id;sensor_type;location;lat;lon;timestamp;P1;durP1;ratioP1;P2;durP2;ratioP2
9520;SDS011;4798;41.574;23.734;2024-01-15T00:01:45;1.63;;;1.53;;
9520;SDS011;4798;41.574;23.734;2024-01-15T00:04:16;3.10;;;2.90;;
9520;SDS011;4798;41.574;23.734;2024-01-15T00:06:45;9.80;;;3.97;;
9520;SDS011;4798;41.574;23.734;2024-01-15T00:09:14;4.87;;;2.50;;
9520;SDS011;4798;41.574;23.734;2024-01-15T00:11:42;7.20;;;2.27;;
9520;SDS011;4798;41.574;23.734;2024-01-15T00:14:11;2.30;;;2.20;;
9520;SDS011;4798;41.574;23.734;2024-01-15T00:16:41;3.10;;;1.23;;
9520;SDS011;4798;41.574;23.734;2024-01-15T00:19:10;2.10;;;1.90;;
9520;SDS011;4798;41.574;23.734;2024-01-15T00:21:40;4.20;;;2.30;;
9520;SDS011;4798;41.574;23.734;2024-01-15T00:24:09;1.53;;;1.53;;
9520;SDS011;4798;41.574;23.734;2024-01-15T00:26:39;3.40;;;3.20;;
9520;SDS011;4798;41.574;23.734;2024-01-15T00:29:07;2.30;;;2.10;;
9520;SDS011;4798;41.574;23.734;2024-01-15T00:31:36;4.97;;;1.90;;
9520;SDS011;4798;41.574;23.734;2024-01-15T00:34:05;1.03;;;1.03;;
9520;SDS011;4798;41.574;23.734;2024-01-15T00:36:34;1.43;;;0.90;;
9520;SDS011;4798;41.574;23.734;2024-01-15T00:39:04;4.83;;;1.20;;
9520;SDS011;4798;41.574;23.734;2024-01-15T00:41:32;2.40;;;1.80;;
9520;SDS011;4798;41.574;23.734;2024-01-15T00:44:01;1.23;;;1.13;;
9520;SDS011;4798;41.574;23.734;2024-01-15T00:46:30;3.70;;;0.80;;
9520;SDS011;4798;41.574;23.734;2024-01-15T00:48:58;0.83;;;0.83;;
9520;SDS011;4798;41.574;23.734;2024-01-15T00:51:27;1.40;;;1.30;;
9520;SDS011;4798;41.574;23.734;2024-01-15T00:53:56;0.80;;;0.70;;
9520;SDS011;4798;41.574;23.734;2024-01-15T00:56:26;5.03;;;1.70;;
9520;SDS011;4798;41.574;23.734;2024-01-15T00:58:55;6.57;;;2.27;;
9520;SDS011;4798;41.574;23.734;2024-01-15T01:01:23;2.07;;;1.90;;
9520;SDS011;4798;41.574;23.734;2024-01-15T01:03:52;0.97;;;0.97;;
9520;SDS011;4798;41.574;23.734;2024-01-15T01:06:21;8.50;;;2.70;;
9520;SDS011;4798;41.574;23.734;2024-01-15T01:08:49;2.50;;;1.17;;
9520;SDS011;4798;41.574;23.734;2024-01-15T01:11:18;2.73;;;2.20;;
9520;SDS011;4798;41.574;23.734;2024-01-15T01:13:47;2.13;;;2.03;;
9520;SDS011;4798;41.574;23.734;2024-01-15T01:16:16;3.07;;;1.47;;
9520;SDS011;4798;41.574;23.734;2024-01-15T01:18:44;7.10;;;2.60;;
9520;SDS011;4798;41.574;23.734;2024-01-15T01:21:13;3.03;;;2.83;;
9520;SDS011;4798;41.574;23.734;2024-01-15T01:23:42;2.00;;;1.90;;
9520;SDS011;4798;41.574;23.734;2024-01-15T01:26:10;2.47;;;2.27;;
9520;SDS011;4798;41.574;23.734;2024-01-15T01:28:43;6.43;;;3.30;;
9520;SDS011;4798;41.574;23.734;2024-01-15T01:31:13;3.87;;;3.60;;
9520;SDS011;4798;41.574;23.734;2024-01-15T01:33:43;1.90;;;1.80;;
9520;SDS011;4798;41.574;23.734;2024-01-15T01:36:12;8.03;;;1.90;;
9520;SDS011;4798;41.574;23.734;2024-01-15T01:38:40;4.90;;;2.07;;
9520;SDS011;4798;41.574;23.734;2024-01-15T01:41:09;3.33;;;1.50;;
9520;SDS011;4798;41.574;23.734;2024-01-15T01:43:38;9.03;;;3.43;;
9520;SDS011;4798;41.574;23.734;2024-01-15T01:46:06;1.50;;;1.43;;
9520;SDS011;4798;41.574;23.734;2024-01-15T01:48:37;2.90;;;2.13;;
9520;SDS011;4798;41.574;23.734;2024-01-15T01:51:06;1.67;;;1.43;;
9520;SDS011;4798;41.574;23.734;2024-01-15T01:53:35;3.27;;;2.33;;
9520;SDS011;4798;41.574;23.734;2024-01-15T01:56:06;4.53;;;1.30;;
9520;SDS011;4798;41.574;23.734;2024-01-15T01:58:35;4.93;;;2.47;;
9520;SDS011;4798;41.574;23.734;2024-01-15T02:01:04;5.37;;;2.13;;
9520;SDS011;4798;41.574;23.734;2024-01-15T02:03:35;21.03;;;3.60;;
9520;SDS011;4798;41.574;23.734;2024-01-15T02:06:05;4.47;;;1.63;;
9520;SDS011;4798;41.574;23.734;2024-01-15T02:08:34;5.63;;;2.47;;
9520;SDS011;4798;41.574;23.734;2024-01-15T02:11:04;5.83;;;1.67;;
9520;SDS011;4798;41.574;23.734;2024-01-15T02:13:32;6.37;;;2.13;;
9520;SDS011;4798;41.574;23.734;2024-01-15T02:16:01;6.20;;;1.23;;
9520;SDS011;4798;41.574;23.734;2024-01-15T02:18:37;5.17;;;2.03;;
9520;SDS011;4798;41.574;23.734;2024-01-15T02:21:09;1.87;;;1.50;;
9520;SDS011;4798;41.574;23.734;2024-01-15T02:23:40;3.53;;;3.20;;
9520;SDS011;4798;41.574;23.734;2024-01-15T02:26:09;1.73;;;1.00;;
9520;SDS011;4798;41.574;23.734;2024-01-15T02:28:38;5.30;;;1.53;;
9520;SDS011;4798;41.574;23.734;2024-01-15T02:31:08;5.40;;;1.03;;
9520;SDS011;4798;41.574;23.734;2024-01-15T02:33:36;0.90;;;0.90;;
9520;SDS011;4798;41.574;23.734;2024-01-15T02:36:05;2.13;;;1.10;;
9520;SDS011;4798;41.574;23.734;2024-01-15T02:38:34;1.27;;;1.23;;
9520;SDS011;4798;41.574;23.734;2024-01-15T02:41:04;2.13;;;1.80;;
9520;SDS011;4798;41.574;23.734;2024-01-15T02:43:33;4.10;;;1.80;;
9520;SDS011;4798;41.574;23.734;2024-01-15T02:46:02;4.97;;;2.90;;
9520;SDS011;4798;41.574;23.734;2024-01-15T02:48:30;2.93;;;2.00;;
9520;SDS011;4798;41.574;23.734;2024-01-15T02:50:59;6.03;;;1.20;;
9520;SDS011;4798;41.574;23.734;2024-01-15T02:53:29;2.30;;;1.10;;
9520;SDS011;4798;41.574;23.734;2024-01-15T02:55:58;4.00;;;3.80;;
9520;SDS011;4798;41.574;23.734;2024-01-15T02:58:28;2.50;;;2.30;;
9520;SDS011;4798;41.574;23.734;2024-01-15T03:00:56;1.03;;;0.90;;
9520;SDS011;4798;41.574;23.734;2024-01-15T03:03:25;1.90;;;1.40;;
9520;SDS011;4798;41.574;23.734;2024-01-15T03:05:54;2.10;;;1.47;;
9520;SDS011;4798;41.574;23.734;2024-01-15T03:08:22;5.10;;;1.90;;
9520;SDS011;4798;41.574;23.734;2024-01-15T03:10:51;1.10;;;0.97;;
9520;SDS011;4798;41.574;23.734;2024-01-15T03:13:20;7.23;;;3.13;;
9520;SDS011;4798;41.574;23.734;2024-01-15T03:15:50;0.97;;;0.97;;
9520;SDS011;4798;41.574;23.734;2024-01-15T03:18:18;1.73;;;1.00;;
9520;SDS011;4798;41.574;23.734;2024-01-15T03:20:47;6.60;;;1.30;;
9520;SDS011;4798;41.574;23.734;2024-01-15T03:23:16;1.07;;;1.07;;
9520;SDS011;4798;41.574;23.734;2024-01-15T03:25:44;4.07;;;2.13;;
9520;SDS011;4798;41.574;23.734;2024-01-15T03:28:13;3.90;;;2.27;;
9520;SDS011;4798;41.574;23.734;2024-01-15T03:30:41;2.50;;;2.40;;
9520;SDS011;4798;41.574;23.734;2024-01-15T03:33:11;2.40;;;2.30;;
9520;SDS011;4798;41.574;23.734;2024-01-15T03:35:40;2.73;;;2.63;;
9520;SDS011;4798;41.574;23.734;2024-01-15T03:38:09;1.37;;;1.17;;
9520;SDS011;4798;41.574;23.734;2024-01-15T03:40:38;3.77;;;1.33;;
9520;SDS011;4798;41.574;23.734;2024-01-15T03:43:06;8.77;;;1.17;;
9520;SDS011;4798;41.574;23.734;2024-01-15T03:45:35;1.73;;;1.60;;
9520;SDS011;4798;41.574;23.734;2024-01-15T03:48:04;9.97;;;1.80;;
9520;SDS011;4798;41.574;23.734;2024-01-15T03:50:35;3.40;;;1.70;;
9520;SDS011;4798;41.574;23.734;2024-01-15T03:53:03;1.67;;;1.60;;
9520;SDS011;4798;41.574;23.734;2024-01-15T03:55:32;5.53;;;1.90;;
9520;SDS011;4798;41.574;23.734;2024-01-15T03:58:00;1.63;;;1.43;;
9520;SDS011;4798;41.574;23.734;2024-01-15T04:00:31;4.70;;;1.30;;
9520;SDS011;4798;41.574;23.734;2024-01-15T04:02:59;2.97;;;1.90;;
9520;SDS011;4798;41.574;23.734;2024-01-15T04:05:28;3.93;;;3.10;;
9520;SDS011;4798;41.574;23.734;2024-01-15T04:07:58;1.43;;;1.33;;
9520;SDS011;4798;41.574;23.734;2024-01-15T04:10:27;2.37;;;2.27;;
9520;SDS011;4798;41.574;23.734;2024-01-15T04:12:55;2.50;;;2.30;;
9520;SDS011;4798;41.574;23.734;2024-01-15T04:15:26;2.13;;;2.03;;
9520;SDS011;4798;41.574;23.734;2024-01-15T04:17:54;2.03;;;1.27;;
9520;SDS011;4798;41.574;23.734;2024-01-15T04:20:23;1.40;;;1.30;;
9520;SDS011;4798;41.574;23.734;2024-01-15T04:22:52;3.03;;;1.40;;
9520;SDS011;4798;41.574;23.734;2024-01-15T04:25:22;1.50;;;1.30;;
9520;SDS011;4798;41.574;23.734;2024-01-15T04:27:50;3.13;;;2.90;;
9520;SDS011;4798;41.574;23.734;2024-01-15T04:30:19;3.70;;;1.47;;
9520;SDS011;4798;41.574;23.734;2024-01-15T04:32:48;1.27;;;1.17;;
9520;SDS011;4798;41.574;23.734;2024-01-15T04:35:17;1.47;;;1.37;;
9520;SDS011;4798;41.574;23.734;2024-01-15T04:37:45;3.47;;;2.70;;
9520;SDS011;4798;41.574;23.734;2024-01-15T04:40:14;2.57;;;1.50;;
9520;SDS011;4798;41.574;23.734;2024-01-15T04:42:44;1.90;;;1.80;;
9520;SDS011;4798;41.574;23.734;2024-01-15T04:45:13;3.20;;;2.13;;
9520;SDS011;4798;41.574;23.734;2024-01-15T04:47:42;6.23;;;2.97;;
9520;SDS011;4798;41.574;23.734;2024-01-15T04:50:11;10.77;;;2.70;;
9520;SDS011;4798;41.574;23.734;2024-01-15T04:52:39;2.60;;;2.50;;
9520;SDS011;4798;41.574;23.734;2024-01-15T04:55:08;1.50;;;1.40;;
9520;SDS011;4798;41.574;23.734;2024-01-15T04:57:37;3.80;;;3.50;;
9520;SDS011;4798;41.574;23.734;2024-01-15T05:00:07;7.33;;;3.13;;
9520;SDS011;4798;41.574;23.734;2024-01-15T05:02:37;3.80;;;3.60;;
9520;SDS011;4798;41.574;23.734;2024-01-15T05:05:05;3.40;;;2.23;;
9520;SDS011;4798;41.574;23.734;2024-01-15T05:07:34;2.57;;;2.37;;
9520;SDS011;4798;41.574;23.734;2024-01-15T05:10:03;3.50;;;3.20;;
9520;SDS011;4798;41.574;23.734;2024-01-15T05:12:32;5.50;;;2.00;;
9520;SDS011;4798;41.574;23.734;2024-01-15T05:15:00;10.70;;;4.03;;
9520;SDS011;4798;41.574;23.734;2024-01-15T05:17:31;3.87;;;3.67;;
9520;SDS011;4798;41.574;23.734;2024-01-15T05:19:59;5.90;;;2.60;;
9520;SDS011;4798;41.574;23.734;2024-01-15T05:22:29;2.77;;;2.10;;
9520;SDS011;4798;41.574;23.734;2024-01-15T05:24:57;3.07;;;1.70;;
9520;SDS011;4798;41.574;23.734;2024-01-15T05:27:26;3.43;;;2.77;;
9520;SDS011;4798;41.574;23.734;2024-01-15T05:29:55;4.00;;;2.43;;
9520;SDS011;4798;41.574;23.734;2024-01-15T05:32:23;1.47;;;1.47;;
9520;SDS011;4798;41.574;23.734;2024-01-15T05:34:53;3.60;;;2.00;;
9520;SDS011;4798;41.574;23.734;2024-01-15T05:37:22;2.13;;;2.03;;
9520;SDS011;4798;41.574;23.734;2024-01-15T05:39:50;1.73;;;1.17;;
9520;SDS011;4798;41.574;23.734;2024-01-15T05:42:19;3.70;;;1.60;;
9520;SDS011;4798;41.574;23.734;2024-01-15T05:44:48;5.30;;;2.20;;
9520;SDS011;4798;41.574;23.734;2024-01-15T05:47:17;2.10;;;2.00;;
9520;SDS011;4798;41.574;23.734;2024-01-15T05:49:45;5.80;;;3.67;;
9520;SDS011;4798;41.574;23.734;2024-01-15T05:52:15;1.70;;;1.43;;
9520;SDS011;4798;41.574;23.734;2024-01-15T05:54:44;2.63;;;1.50;;
9520;SDS011;4798;41.574;23.734;2024-01-15T05:57:13;2.70;;;0.87;;
9520;SDS011;4798;41.574;23.734;2024-01-15T05:59:42;1.40;;;1.30;;
9520;SDS011;4798;41.574;23.734;2024-01-15T06:02:12;0.97;;;0.97;;
9520;SDS011;4798;41.574;23.734;2024-01-15T06:04:41;3.00;;;2.80;;
9520;SDS011;4798;41.574;23.734;2024-01-15T06:07:09;2.50;;;1.73;;
9520;SDS011;4798;41.574;23.734;2024-01-15T06:09:39;1.00;;;0.90;;
9520;SDS011;4798;41.574;23.734;2024-01-15T06:12:08;2.07;;;2.03;;
9520;SDS011;4798;41.574;23.734;2024-01-15T06:14:37;6.33;;;1.70;;
9520;SDS011;4798;41.574;23.734;2024-01-15T06:17:05;3.67;;;2.13;;
9520;SDS011;4798;41.574;23.734;2024-01-15T06:19:34;2.40;;;2.20;;
9520;SDS011;4798;41.574;23.734;2024-01-15T06:22:03;2.20;;;1.80;;
9520;SDS011;4798;41.574;23.734;2024-01-15T06:24:32;7.87;;;1.43;;
9520;SDS011;4798;41.574;23.734;2024-01-15T06:27:02;3.47;;;3.13;;
9520;SDS011;4798;41.574;23.734;2024-01-15T06:29:31;2.47;;;2.37;;
9520;SDS011;4798;41.574;23.734;2024-01-15T06:32:00;3.17;;;2.17;;
9520;SDS011;4798;41.574;23.734;2024-01-15T06:34:29;2.83;;;2.30;;
9520;SDS011;4798;41.574;23.734;2024-01-15T06:36:58;4.03;;;1.93;;
9520;SDS011;4798;41.574;23.734;2024-01-15T06:39:26;3.60;;;2.67;;
9520;SDS011;4798;41.574;23.734;2024-01-15T06:41:55;3.60;;;2.43;;
9520;SDS011;4798;41.574;23.734;2024-01-15T06:44:25;4.00;;;2.80;;
9520;SDS011;4798;41.574;23.734;2024-01-15T06:46:53;2.83;;;2.20;;
9520;SDS011;4798;41.574;23.734;2024-01-15T06:49:24;7.23;;;4.20;;
9520;SDS011;4798;41.574;23.734;2024-01-15T06:51:52;11.23;;;3.67;;
9520;SDS011;4798;41.574;23.734;2024-01-15T06:54:21;15.30;;;4.00;;
9520;SDS011;4798;41.574;23.734;2024-01-15T06:56:50;18.87;;;6.63;;
9520;SDS011;4798;41.574;23.734;2024-01-15T06:59:19;18.67;;;5.90;;
9520;SDS011;4798;41.574;23.734;2024-01-15T07:01:49;4.70;;;2.63;;
9520;SDS011;4798;41.574;23.734;2024-01-15T07:04:18;4.30;;;4.00;;
9520;SDS011;4798;41.574;23.734;2024-01-15T07:06:46;13.67;;;4.70;;
9520;SDS011;4798;41.574;23.734;2024-01-15T07:09:15;6.50;;;5.70;;
9520;SDS011;4798;41.574;23.734;2024-01-15T07:11:44;3.80;;;3.50;;
9520;SDS011;4798;41.574;23.734;2024-01-15T07:14:14;6.80;;;5.50;;
9520;SDS011;4798;41.574;23.734;2024-01-15T07:16:43;6.80;;;5.03;;
9520;SDS011;4798;41.574;23.734;2024-01-15T07:19:15;6.90;;;4.83;;
9520;SDS011;4798;41.574;23.734;2024-01-15T07:21:44;2.10;;;1.80;;
9520;SDS011;4798;41.574;23.734;2024-01-15T07:24:13;15.30;;;4.30;;
9520;SDS011;4798;41.574;23.734;2024-01-15T07:26:42;11.80;;;5.20;;
9520;SDS011;4798;41.574;23.734;2024-01-15T07:29:11;13.70;;;6.93;;
9520;SDS011;4798;41.574;23.734;2024-01-15T07:31:40;5.90;;;5.40;;
9520;SDS011;4798;41.574;23.734;2024-01-15T07:34:09;9.23;;;5.77;;
9520;SDS011;4798;41.574;23.734;2024-01-15T07:36:39;8.63;;;7.63;;
9520;SDS011;4798;41.574;23.734;2024-01-15T07:39:08;12.67;;;6.67;;
9520;SDS011;4798;41.574;23.734;2024-01-15T07:41:37;6.70;;;4.40;;
9520;SDS011;4798;41.574;23.734;2024-01-15T07:44:05;12.30;;;6.50;;
9520;SDS011;4798;41.574;23.734;2024-01-15T07:46:34;15.10;;;4.90;;
9520;SDS011;4798;41.574;23.734;2024-01-15T07:49:03;3.43;;;3.00;;
9520;SDS011;4798;41.574;23.734;2024-01-15T07:51:32;4.67;;;4.37;;
9520;SDS011;4798;41.574;23.734;2024-01-15T07:54:02;4.47;;;3.13;;
9520;SDS011;4798;41.574;23.734;2024-01-15T07:56:31;4.30;;;4.00;;
9520;SDS011;4798;41.574;23.734;2024-01-15T07:59:00;13.10;;;2.40;;
9520;SDS011;4798;41.574;23.734;2024-01-15T08:01:29;8.47;;;3.00;;
9520;SDS011;4798;41.574;23.734;2024-01-15T08:03:58;1.63;;;1.53;;
9520;SDS011;4798;41.574;23.734;2024-01-15T08:06:26;3.63;;;2.37;;
9520;SDS011;4798;41.574;23.734;2024-01-15T08:08:55;5.07;;;1.73;;
9520;SDS011;4798;41.574;23.734;2024-01-15T08:11:27;4.33;;;2.90;;
9520;SDS011;4798;41.574;23.734;2024-01-15T08:13:56;2.27;;;2.17;;
9520;SDS011;4798;41.574;23.734;2024-01-15T08:16:24;2.60;;;2.50;;
9520;SDS011;4798;41.574;23.734;2024-01-15T08:18:53;4.00;;;2.97;;
9520;SDS011;4798;41.574;23.734;2024-01-15T08:21:23;4.13;;;2.30;;
9520;SDS011;4798;41.574;23.734;2024-01-15T08:23:52;12.57;;;2.60;;
9520;SDS011;4798;41.574;23.734;2024-01-15T08:26:20;3.20;;;2.63;;
9520;SDS011;4798;41.574;23.734;2024-01-15T08:28:50;2.20;;;2.10;;
9520;SDS011;4798;41.574;23.734;2024-01-15T08:31:19;5.33;;;3.13;;
9520;SDS011;4798;41.574;23.734;2024-01-15T08:33:48;5.40;;;2.90;;
9520;SDS011;4798;41.574;23.734;2024-01-15T08:36:16;4.27;;;4.03;;
9520;SDS011;4798;41.574;23.734;2024-01-15T08:38:46;2.17;;;2.07;;
9520;SDS011;4798;41.574;23.734;2024-01-15T08:41:14;1.27;;;0.93;;
9520;SDS011;4798;41.574;23.734;2024-01-15T08:43:43;2.20;;;2.07;;
9520;SDS011;4798;41.574;23.734;2024-01-15T08:46:13;3.20;;;2.83;;
9520;SDS011;4798;41.574;23.734;2024-01-15T08:48:42;10.13;;;2.87;;
9520;SDS011;4798;41.574;23.734;2024-01-15T08:51:11;0.83;;;0.83;;
9520;SDS011;4798;41.574;23.734;2024-01-15T08:53:39;1.57;;;0.80;;
9520;SDS011;4798;41.574;23.734;2024-01-15T08:56:08;4.43;;;0.93;;
9520;SDS011;4798;41.574;23.734;2024-01-15T08:58:37;0.80;;;0.70;;
9520;SDS011;4798;41.574;23.734;2024-01-15T09:01:06;1.17;;;0.90;;
9520;SDS011;4798;41.574;23.734;2024-01-15T09:03:36;0.70;;;0.70;;
9520;SDS011;4798;41.574;23.734;2024-01-15T09:06:05;18.90;;;1.33;;
9520;SDS011;4798;41.574;23.734;2024-01-15T09:08:33;3.53;;;1.60;;
9520;SDS011;4798;41.574;23.734;2024-01-15T09:11:02;1.77;;;1.67;;
9520;SDS011;4798;41.574;23.734;2024-01-15T09:13:31;0.80;;;0.80;;
9520;SDS011;4798;41.574;23.734;2024-01-15T09:15:59;0.97;;;0.90;;
9520;SDS011;4798;41.574;23.734;2024-01-15T09:18:29;4.10;;;2.27;;
9520;SDS011;4798;41.574;23.734;2024-01-15T09:21:00;1.80;;;1.70;;
9520;SDS011;4798;41.574;23.734;2024-01-15T09:23:30;6.03;;;1.57;;
9520;SDS011;4798;41.574;23.734;2024-01-15T09:25:58;2.67;;;2.47;;
9520;SDS011;4798;41.574;23.734;2024-01-15T09:28:27;1.23;;;1.20;;
9520;SDS011;4798;41.574;23.734;2024-01-15T09:30:56;3.90;;;3.50;;
9520;SDS011;4798;41.574;23.734;2024-01-15T09:33:25;3.00;;;1.47;;
9520;SDS011;4798;41.574;23.734;2024-01-15T09:35:53;0.83;;;0.83;;
9520;SDS011;4798;41.574;23.734;2024-01-15T09:38:23;6.33;;;0.80;;
9520;SDS011;4798;41.574;23.734;2024-01-15T09:40:52;2.70;;;2.50;;
9520;SDS011;4798;41.574;23.734;2024-01-15T09:43:21;5.17;;;2.50;;
9520;SDS011;4798;41.574;23.734;2024-01-15T09:45:50;2.10;;;1.90;;
9520;SDS011;4798;41.574;23.734;2024-01-15T09:48:19;6.90;;;2.90;;
9520;SDS011;4798;41.574;23.734;2024-01-15T09:50:49;1.10;;;1.03;;
9520;SDS011;4798;41.574;23.734;2024-01-15T09:53:18;1.43;;;0.80;;
9520;SDS011;4798;41.574;23.734;2024-01-15T09:55:50;11.80;;;1.73;;
9520;SDS011;4798;41.574;23.734;2024-01-15T09:58:20;2.17;;;2.07;;
9520;SDS011;4798;41.574;23.734;2024-01-15T10:00:49;3.77;;;3.23;;
9520;SDS011;4798;41.574;23.734;2024-01-15T10:03:18;1.93;;;1.80;;
9520;SDS011;4798;41.574;23.734;2024-01-15T10:05:48;1.37;;;1.37;;
9520;SDS011;4798;41.574;23.734;2024-01-15T10:08:17;1.60;;;1.50;;
9520;SDS011;4798;41.574;23.734;2024-01-15T10:10:47;2.17;;;2.03;;
9520;SDS011;4798;41.574;23.734;2024-01-15T10:13:17;3.43;;;1.40;;
9520;SDS011;4798;41.574;23.734;2024-01-15T10:15:47;2.00;;;1.40;;
9520;SDS011;4798;41.574;23.734;2024-01-15T10:18:15;7.57;;;1.93;;
9520;SDS011;4798;41.574;23.734;2024-01-15T10:20:44;2.40;;;2.20;;
9520;SDS011;4798;41.574;23.734;2024-01-15T10:23:14;1.63;;;1.57;;
9520;SDS011;4798;41.574;23.734;2024-01-15T10:25:42;2.83;;;1.50;;
9520;SDS011;4798;41.574;23.734;2024-01-15T10:28:11;1.47;;;1.37;;
9520;SDS011;4798;41.574;23.734;2024-01-15T10:30:42;1.13;;;1.03;;
9520;SDS011;4798;41.574;23.734;2024-01-15T10:33:11;5.60;;;1.87;;
9520;SDS011;4798;41.574;23.734;2024-01-15T10:35:42;2.93;;;2.63;;
9520;SDS011;4798;41.574;23.734;2024-01-15T10:38:11;1.93;;;1.77;;
9520;SDS011;4798;41.574;23.734;2024-01-15T10:40:39;2.40;;;2.30;;
9520;SDS011;4798;41.574;23.734;2024-01-15T10:43:09;0.60;;;0.60;;
9520;SDS011;4798;41.574;23.734;2024-01-15T10:45:38;1.97;;;0.90;;
9520;SDS011;4798;41.574;23.734;2024-01-15T10:48:08;7.00;;;1.50;;
9520;SDS011;4798;41.574;23.734;2024-01-15T10:50:37;1.10;;;0.73;;
9520;SDS011;4798;41.574;23.734;2024-01-15T10:53:06;7.30;;;2.00;;
9520;SDS011;4798;41.574;23.734;2024-01-15T10:55:38;2.93;;;0.93;;
9520;SDS011;4798;41.574;23.734;2024-01-15T10:58:07;1.60;;;1.53;;
9520;SDS011;4798;41.574;23.734;2024-01-15T11:00:36;8.13;;;2.00;;
9520;SDS011;4798;41.574;23.734;2024-01-15T11:03:06;1.63;;;1.30;;
9520;SDS011;4798;41.574;23.734;2024-01-15T11:05:37;1.67;;;1.57;;
9520;SDS011;4798;41.574;23.734;2024-01-15T11:08:06;14.33;;;1.63;;
9520;SDS011;4798;41.574;23.734;2024-01-15T11:10:38;1.00;;;0.90;;
9520;SDS011;4798;41.574;23.734;2024-01-15T11:13:09;1.93;;;1.83;;
9520;SDS011;4798;41.574;23.734;2024-01-15T11:18:28;2.73;;;1.23;;
9520;SDS011;4798;41.574;23.734;2024-01-15T11:23:55;2.13;;;1.37;;
9520;SDS011;4798;41.574;23.734;2024-01-15T11:26:28;3.10;;;2.90;;
9520;SDS011;4798;41.574;23.734;2024-01-15T11:29:01;1.03;;;0.93;;
9520;SDS011;4798;41.574;23.734;2024-01-15T11:37:28;12.60;;;0.50;;
9520;SDS011;4798;41.574;23.734;2024-01-15T11:40:17;3.47;;;1.17;;
9520;SDS011;4798;41.574;23.734;2024-01-15T11:42:47;5.00;;;0.80;;
9520;SDS011;4798;41.574;23.734;2024-01-15T11:45:18;1.80;;;1.70;;
9520;SDS011;4798;41.574;23.734;2024-01-15T11:50:41;0.87;;;0.87;;
9520;SDS011;4798;41.574;23.734;2024-01-15T11:53:22;1.03;;;1.03;;
9520;SDS011;4798;41.574;23.734;2024-01-15T11:56:02;1.30;;;1.20;;
9520;SDS011;4798;41.574;23.734;2024-01-15T11:58:34;1.23;;;0.87;;
9520;SDS011;4798;41.574;23.734;2024-01-15T12:01:04;0.77;;;0.77;;
9520;SDS011;4798;41.574;23.734;2024-01-15T12:03:33;0.80;;;0.80;;
9520;SDS011;4798;41.574;23.734;2024-01-15T12:06:04;1.23;;;1.17;;
9520;SDS011;4798;41.574;23.734;2024-01-15T12:08:34;1.80;;;1.70;;
9520;SDS011;4798;41.574;23.734;2024-01-15T12:11:04;3.90;;;1.07;;
9520;SDS011;4798;41.574;23.734;2024-01-15T12:13:38;2.60;;;0.80;;
9520;SDS011;4798;41.574;23.734;2024-01-15T12:16:06;0.90;;;0.90;;
9520;SDS011;4798;41.574;23.734;2024-01-15T12:18:35;0.50;;;0.50;;
9520;SDS011;4798;41.574;23.734;2024-01-15T12:21:05;0.53;;;0.50;;
9520;SDS011;4798;41.574;23.734;2024-01-15T12:23:34;1.47;;;1.27;;
9520;SDS011;4798;41.574;23.734;2024-01-15T12:26:03;2.43;;;2.23;;
9520;SDS011;4798;41.574;23.734;2024-01-15T12:28:32;3.07;;;2.77;;
9520;SDS011;4798;41.574;23.734;2024-01-15T12:31:00;9.40;;;1.03;;
9520;SDS011;4798;41.574;23.734;2024-01-15T12:33:32;0.83;;;0.83;;
9520;SDS011;4798;41.574;23.734;2024-01-15T12:36:02;3.50;;;1.73;;
9520;SDS011;4798;41.574;23.734;2024-01-15T12:38:34;1.00;;;0.90;;
9520;SDS011;4798;41.574;23.734;2024-01-15T12:41:02;0.60;;;0.60;;
9520;SDS011;4798;41.574;23.734;2024-01-15T12:43:32;0.97;;;0.53;;
9520;SDS011;4798;41.574;23.734;2024-01-15T12:46:00;2.20;;;0.80;;
9520;SDS011;4798;41.574;23.734;2024-01-15T12:48:30;1.10;;;1.10;;
9520;SDS011;4798;41.574;23.734;2024-01-15T12:50:58;0.70;;;0.70;;
9520;SDS011;4798;41.574;23.734;2024-01-15T12:53:27;4.10;;;1.30;;
9520;SDS011;4798;41.574;23.734;2024-01-15T12:55:57;1.53;;;0.70;;
9520;SDS011;4798;41.574;23.734;2024-01-15T12:58:26;0.50;;;0.50;;
9520;SDS011;4798;41.574;23.734;2024-01-15T13:00:54;0.77;;;0.63;;
9520;SDS011;4798;41.574;23.734;2024-01-15T13:03:23;0.40;;;0.40;;
9520;SDS011;4798;41.574;23.734;2024-01-15T13:05:52;0.40;;;0.30;;
9520;SDS011;4798;41.574;23.734;2024-01-15T13:08:20;1.70;;;0.53;;
9520;SDS011;4798;41.574;23.734;2024-01-15T13:10:52;1.37;;;1.13;;
9520;SDS011;4798;41.574;23.734;2024-01-15T13:13:25;0.73;;;0.70;;
9520;SDS011;4798;41.574;23.734;2024-01-15T13:15:54;0.40;;;0.20;;
9520;SDS011;4798;41.574;23.734;2024-01-15T13:18:22;1.90;;;1.17;;
9520;SDS011;4798;41.574;23.734;2024-01-15T13:20:51;0.43;;;0.40;;
9520;SDS011;4798;41.574;23.734;2024-01-15T13:23:20;0.50;;;0.40;;
9520;SDS011;4798;41.574;23.734;2024-01-15T13:25:49;1.43;;;1.40;;
9520;SDS011;4798;41.574;23.734;2024-01-15T13:28:17;0.60;;;0.50;;
9520;SDS011;4798;41.574;23.734;2024-01-15T13:30:50;1.90;;;1.07;;
9520;SDS011;4798;41.574;23.734;2024-01-15T13:33:20;1.53;;;1.43;;
9520;SDS011;4798;41.574;23.734;2024-01-15T13:35:48;1.83;;;1.73;;
9520;SDS011;4798;41.574;23.734;2024-01-15T13:38:17;2.93;;;0.60;;
9520;SDS011;4798;41.574;23.734;2024-01-15T13:40:46;0.50;;;0.33;;
9520;SDS011;4798;41.574;23.734;2024-01-15T13:43:15;0.57;;;0.57;;
9520;SDS011;4798;41.574;23.734;2024-01-15T13:45:45;0.40;;;0.30;;
9520;SDS011;4798;41.574;23.734;2024-01-15T13:48:15;1.27;;;0.97;;
9520;SDS011;4798;41.574;23.734;2024-01-15T13:50:45;1.30;;;0.83;;
9520;SDS011;4798;41.574;23.734;2024-01-15T13:53:13;0.60;;;0.60;;
9520;SDS011;4798;41.574;23.734;2024-01-15T13:55:42;3.97;;;0.87;;
9520;SDS011;4798;41.574;23.734;2024-01-15T13:58:11;2.53;;;1.93;;
9520;SDS011;4798;41.574;23.734;2024-01-15T14:00:40;1.30;;;1.30;;
9520;SDS011;4798;41.574;23.734;2024-01-15T14:03:08;1.00;;;0.57;;
9520;SDS011;4798;41.574;23.734;2024-01-15T14:05:38;4.97;;;1.93;;
9520;SDS011;4798;41.574;23.734;2024-01-15T14:08:07;0.47;;;0.30;;
9520;SDS011;4798;41.574;23.734;2024-01-15T14:10:36;0.70;;;0.70;;
9520;SDS011;4798;41.574;23.734;2024-01-15T14:13:05;0.47;;;0.40;;
9520;SDS011;4798;41.574;23.734;2024-01-15T14:15:33;0.70;;;0.70;;
9520;SDS011;4798;41.574;23.734;2024-01-15T14:18:03;0.73;;;0.73;;
9520;SDS011;4798;41.574;23.734;2024-01-15T14:20:32;1.23;;;1.23;;
9520;SDS011;4798;41.574;23.734;2024-01-15T14:23:02;0.60;;;0.53;;
9520;SDS011;4798;41.574;23.734;2024-01-15T14:25:31;0.70;;;0.50;;
9520;SDS011;4798;41.574;23.734;2024-01-15T14:28:00;2.00;;;0.60;;
9520;SDS011;4798;41.574;23.734;2024-01-15T14:30:28;1.10;;;1.00;;
9520;SDS011;4798;41.574;23.734;2024-01-15T14:32:57;1.27;;;1.20;;
9520;SDS011;4798;41.574;23.734;2024-01-15T14:35:26;0.50;;;0.40;;
9520;SDS011;4798;41.574;23.734;2024-01-15T14:37:54;1.57;;;1.47;;
9520;SDS011;4798;41.574;23.734;2024-01-15T14:40:26;1.43;;;1.43;;
9520;SDS011;4798;41.574;23.734;2024-01-15T14:42:56;0.70;;;0.70;;
9520;SDS011;4798;41.574;23.734;2024-01-15T14:45:24;2.33;;;2.17;;
9520;SDS011;4798;41.574;23.734;2024-01-15T14:47:54;8.70;;;1.90;;
9520;SDS011;4798;41.574;23.734;2024-01-15T14:50:23;0.97;;;0.97;;
9520;SDS011;4798;41.574;23.734;2024-01-15T14:52:52;0.70;;;0.70;;
9520;SDS011;4798;41.574;23.734;2024-01-15T14:55:21;1.33;;;0.60;;
9520;SDS011;4798;41.574;23.734;2024-01-15T14:57:52;2.70;;;1.00;;
9520;SDS011;4798;41.574;23.734;2024-01-15T15:00:21;0.97;;;0.73;;
9520;SDS011;4798;41.574;23.734;2024-01-15T15:02:50;0.50;;;0.40;;
9520;SDS011;4798;41.574;23.734;2024-01-15T15:05:19;0.87;;;0.87;;
9520;SDS011;4798;41.574;23.734;2024-01-15T15:07:47;2.40;;;1.53;;
9520;SDS011;4798;41.574;23.734;2024-01-15T15:10:16;0.60;;;0.50;;
9520;SDS011;4798;41.574;23.734;2024-01-15T15:12:45;4.83;;;1.03;;
9520;SDS011;4798;41.574;23.734;2024-01-15T15:15:15;1.87;;;0.93;;
9520;SDS011;4798;41.574;23.734;2024-01-15T15:17:48;0.90;;;0.90;;
9520;SDS011;4798;41.574;23.734;2024-01-15T15:20:16;2.67;;;2.47;;
9520;SDS011;4798;41.574;23.734;2024-01-15T15:22:46;4.97;;;2.90;;
9520;SDS011;4798;41.574;23.734;2024-01-15T15:25:14;5.13;;;1.90;;
9520;SDS011;4798;41.574;23.734;2024-01-15T15:27:43;2.70;;;1.27;;